createdAt,value
2022-07-27T00:00:17.290Z,28.12
2022-07-27T00:01:19.804Z,28.13
2022-07-27T00:02:22.152Z,28.14
2022-07-27T00:03:24.376Z,28.14
2022-07-27T00:04:26.821Z,28.14
2022-07-27T00:05:29.469Z,28.16
2022-07-27T00:06:32.834Z,28.16
2022-07-27T00:07:35.559Z,28.16
2022-07-27T00:08:39.378Z,28.17
2022-07-27T00:09:41.657Z,28.17
2022-07-27T00:10:44.296Z,28.17
2022-07-27T00:11:46.747Z,28.17
2022-07-27T00:12:49.031Z,28.16
2022-07-27T00:13:51.781Z,28.16
2022-07-27T00:14:54.148Z,28.15
2022-07-27T00:15:56.406Z,28.15
2022-07-27T00:17:00.118Z,28.16
2022-07-27T00:18:02.752Z,28.16
2022-07-27T00:19:09.330Z,28.14
2022-07-27T00:20:10.728Z,28.12
2022-07-27T00:21:13.441Z,28.11
2022-07-27T00:22:15.785Z,28.11
2022-07-27T00:23:18.103Z,28.10
2022-07-27T00:24:20.285Z,28.09
2022-07-27T00:25:26.788Z,28.10
2022-07-27T00:26:30.990Z,28.10
2022-07-27T00:27:33.650Z,28.10
2022-07-27T00:28:35.980Z,28.12
2022-07-27T00:29:38.967Z,28.11
2022-07-27T00:30:41.667Z,28.12
2022-07-27T00:31:43.974Z,28.12
2022-07-27T00:32:46.484Z,28.11
2022-07-27T00:33:48.749Z,28.10
2022-07-27T00:34:51.108Z,28.10
2022-07-27T00:35:53.298Z,28.11
2022-07-27T00:36:56.861Z,28.10
2022-07-27T00:37:59.191Z,28.04
2022-07-27T00:39:02.406Z,28.04
2022-07-27T00:40:06.057Z,28.09
2022-07-27T00:41:08.464Z,28.08
2022-07-27T00:42:10.927Z,28.08
2022-07-27T00:43:14.105Z,28.09
2022-07-27T00:44:27.741Z,28.09
2022-07-27T00:45:30.538Z,28.09
2022-07-27T00:46:34.963Z,28.09
2022-07-27T00:47:37.261Z,28.09
2022-07-27T00:48:40.356Z,28.08
2022-07-27T00:49:43.022Z,28.09
2022-07-27T00:50:46.409Z,28.07
2022-07-27T00:51:49.295Z,28.07
2022-07-27T00:52:52.467Z,28.06
2022-07-27T00:53:55.009Z,28.06
2022-07-27T00:54:58.043Z,28.06
2022-07-27T00:56:00.280Z,28.06
2022-07-27T00:57:03.128Z,28.05
2022-07-27T00:58:06.748Z,28.05
2022-07-27T00:59:10.779Z,28.06
2022-07-27T01:00:16.802Z,28.05
2022-07-27T01:01:19.366Z,28.05
2022-07-27T01:02:23.098Z,28.05
2022-07-27T01:03:29.367Z,28.03
2022-07-27T01:04:30.223Z,28.04
2022-07-27T01:05:36.703Z,28.04
2022-07-27T01:06:39.115Z,28.05
2022-07-27T01:07:41.255Z,28.03
2022-07-27T01:08:43.666Z,28.03
2022-07-27T01:09:46.307Z,28.02
2022-07-27T01:10:49.003Z,28.03
2022-07-27T01:11:53.004Z,28.02
2022-07-27T01:12:56.288Z,28.01
2022-07-27T01:13:58.643Z,28.01
2022-07-27T01:15:01.012Z,28.01
2022-07-27T01:16:05.525Z,27.99
2022-07-27T01:17:08.606Z,28.00
2022-07-27T01:18:12.317Z,28.01
2022-07-27T01:19:15.059Z,28.01
2022-07-27T01:20:19.226Z,28.00
2022-07-27T01:21:23.159Z,28.01
2022-07-27T01:22:25.755Z,28.01
2022-07-27T01:23:28.145Z,28.01
2022-07-27T01:24:30.862Z,27.99
2022-07-27T01:25:34.960Z,27.98
2022-07-27T01:26:37.838Z,27.97
2022-07-27T01:27:40.214Z,27.96
2022-07-27T01:28:43.230Z,27.97
2022-07-27T01:29:46.973Z,27.98
2022-07-27T01:30:49.418Z,27.98
2022-07-27T01:31:52.727Z,27.98
2022-07-27T01:33:05.453Z,27.98
2022-07-27T01:34:07.889Z,27.99
2022-07-27T01:35:11.788Z,27.99
2022-07-27T01:36:14.617Z,27.99
2022-07-27T01:37:17.069Z,27.98
2022-07-27T01:38:19.509Z,27.92
2022-07-27T01:39:21.768Z,27.92
2022-07-27T01:40:24.558Z,27.97
2022-07-27T01:41:27.606Z,27.96
2022-07-27T01:42:31.194Z,27.96
2022-07-27T01:43:33.734Z,27.97
2022-07-27T01:44:37.968Z,27.95
2022-07-27T01:45:41.967Z,27.95
2022-07-27T01:46:44.370Z,27.94
2022-07-27T01:47:47.197Z,27.93
2022-07-27T01:48:49.495Z,27.94
2022-07-27T01:49:52.644Z,27.93
2022-07-27T01:50:55.260Z,27.93
2022-07-27T01:51:57.773Z,27.93
2022-07-27T01:53:00.247Z,27.93
2022-07-27T01:54:03.672Z,27.93
2022-07-27T01:55:08.138Z,27.93
2022-07-27T01:56:12.596Z,27.93
2022-07-27T01:57:15.218Z,27.93
2022-07-27T01:58:17.787Z,27.92
2022-07-27T01:59:21.378Z,27.91
2022-07-27T02:00:26.399Z,27.91
2022-07-27T02:01:30.362Z,27.90
2022-07-27T02:02:33.380Z,27.90
2022-07-27T02:03:35.725Z,27.88
2022-07-27T02:04:38.594Z,27.87
2022-07-27T02:05:41.222Z,27.89
2022-07-27T02:06:43.640Z,27.87
2022-07-27T02:07:45.864Z,27.88
2022-07-27T02:08:48.774Z,27.89
2022-07-27T02:09:51.132Z,27.88
2022-07-27T02:10:54.119Z,27.87
2022-07-27T02:11:57.308Z,27.87
2022-07-27T02:12:59.750Z,27.89
2022-07-27T02:14:02.789Z,27.88
2022-07-27T02:16:23.283Z,27.97
2022-07-27T02:17:29.149Z,27.86
2022-07-27T02:18:36.311Z,27.86
2022-07-27T02:19:38.101Z,27.85
2022-07-27T02:20:40.764Z,27.85
2022-07-27T02:21:42.916Z,27.85
2022-07-27T02:22:45.593Z,27.86
2022-07-27T02:23:48.983Z,27.85
2022-07-27T02:24:51.307Z,27.85
2022-07-27T02:25:54.533Z,27.85
2022-07-27T02:26:58.517Z,27.84
2022-07-27T02:28:01.144Z,27.85
2022-07-27T02:29:03.544Z,27.84
2022-07-27T02:30:08.579Z,27.86
2022-07-27T02:31:10.780Z,27.85
2022-07-27T02:32:13.200Z,27.85
2022-07-27T02:33:15.406Z,27.85
2022-07-27T02:34:18.666Z,27.84
2022-07-27T02:35:21.249Z,27.85
2022-07-27T02:36:25.759Z,27.85
2022-07-27T02:37:28.017Z,27.84
2022-07-27T02:38:30.301Z,27.83
2022-07-27T02:39:33.052Z,27.82
2022-07-27T02:40:36.199Z,27.82
2022-07-27T02:41:39.500Z,27.81
2022-07-27T02:42:42.167Z,27.81
2022-07-27T02:43:44.494Z,27.80
2022-07-27T02:44:46.774Z,27.78
2022-07-27T02:45:49.156Z,27.78
2022-07-27T02:46:51.647Z,27.74
2022-07-27T02:47:55.388Z,27.74
2022-07-27T02:48:58.043Z,27.72
2022-07-27T02:50:01.786Z,27.73
2022-07-27T02:51:04.577Z,27.72
2022-07-27T02:52:07.091Z,27.72
2022-07-27T02:53:09.557Z,27.71
2022-07-27T02:54:12.017Z,27.72
2022-07-27T02:55:15.305Z,27.72
2022-07-27T02:56:18.074Z,27.72
2022-07-27T02:57:21.361Z,27.71
2022-07-27T02:58:23.842Z,27.71
2022-07-27T02:59:26.494Z,27.69
2022-07-27T03:00:30.801Z,27.68
2022-07-27T03:01:35.150Z,27.68
2022-07-27T03:02:39.421Z,27.68
2022-07-27T03:03:41.883Z,27.67
2022-07-27T03:04:44.287Z,27.67
2022-07-27T03:05:46.909Z,27.66
2022-07-27T03:06:50.298Z,27.65
2022-07-27T03:07:52.666Z,27.65
2022-07-27T03:08:56.067Z,27.64
2022-07-27T03:09:59.137Z,27.64
2022-07-27T03:11:01.692Z,27.64
2022-07-27T03:12:04.134Z,27.61
2022-07-27T03:13:06.518Z,27.60
2022-07-27T03:14:08.882Z,27.60
2022-07-27T03:15:11.288Z,27.62
2022-07-27T03:16:14.704Z,27.62
2022-07-27T03:17:17.401Z,27.64
2022-07-27T03:18:20.670Z,27.65
2022-07-27T03:19:28.277Z,27.64
2022-07-27T03:20:29.168Z,27.64
2022-07-27T03:21:31.532Z,27.64
2022-07-27T03:22:34.014Z,27.64
2022-07-27T03:23:37.814Z,27.63
2022-07-27T03:24:40.177Z,27.63
2022-07-27T03:25:42.513Z,27.62
2022-07-27T03:26:44.889Z,27.61
2022-07-27T03:27:47.469Z,27.62
2022-07-27T03:28:49.728Z,27.64
2022-07-27T03:29:52.090Z,27.63
2022-07-27T03:30:54.516Z,27.65
2022-07-27T03:31:56.938Z,27.68
2022-07-27T03:32:59.178Z,27.69
2022-07-27T03:34:02.321Z,27.70
2022-07-27T03:35:05.693Z,27.70
2022-07-27T03:36:09.453Z,27.69
2022-07-27T03:37:11.723Z,27.69
2022-07-27T03:38:14.061Z,27.70
2022-07-27T03:39:16.525Z,27.70
2022-07-27T03:40:19.913Z,27.71
2022-07-27T03:41:22.613Z,27.71
2022-07-27T03:42:25.046Z,27.71
2022-07-27T03:43:29.087Z,27.71
2022-07-27T03:44:31.623Z,27.70
2022-07-27T03:45:34.172Z,27.69
2022-07-27T03:46:36.644Z,27.69
2022-07-27T03:47:40.336Z,27.69
2022-07-27T03:48:42.872Z,27.68
2022-07-27T03:49:45.749Z,27.68
2022-07-27T03:50:48.427Z,27.68
2022-07-27T03:51:50.721Z,27.65
2022-07-27T03:52:53.348Z,27.63
2022-07-27T03:53:56.357Z,27.61
2022-07-27T03:54:59.983Z,27.59
2022-07-27T03:56:02.820Z,27.57
2022-07-27T03:57:05.590Z,27.57
2022-07-27T03:58:07.961Z,27.58
2022-07-27T03:59:10.992Z,27.57
2022-07-27T04:00:16.055Z,27.59
2022-07-27T04:01:19.772Z,27.63
2022-07-27T04:02:22.651Z,27.62
2022-07-27T04:03:25.223Z,27.62
2022-07-27T04:04:27.755Z,27.62
2022-07-27T04:05:30.215Z,27.63
2022-07-27T04:06:33.291Z,27.66
2022-07-27T04:07:35.580Z,27.66
2022-07-27T04:08:38.069Z,27.68
2022-07-27T04:09:42.426Z,27.68
2022-07-27T04:10:48.277Z,27.69
2022-07-27T04:11:51.623Z,27.70
2022-07-27T04:12:54.431Z,27.71
2022-07-27T04:13:56.803Z,27.72
2022-07-27T04:14:59.773Z,27.72
2022-07-27T04:16:02.150Z,27.73
2022-07-27T04:17:04.493Z,27.73
2022-07-27T04:18:06.700Z,27.73
2022-07-27T04:19:09.084Z,27.74
2022-07-27T04:20:12.777Z,27.73
2022-07-27T04:21:17.328Z,27.72
2022-07-27T04:22:19.712Z,27.71
2022-07-27T04:23:22.185Z,27.70
2022-07-27T04:24:24.519Z,27.69
2022-07-27T04:25:28.718Z,27.69
2022-07-27T04:26:33.739Z,27.70
2022-07-27T04:27:36.311Z,27.71
2022-07-27T04:28:38.865Z,27.72
2022-07-27T04:29:41.641Z,27.73
2022-07-27T04:30:44.513Z,27.74
2022-07-27T04:31:46.979Z,27.73
2022-07-27T04:32:49.447Z,27.73
2022-07-27T04:33:52.632Z,27.72
2022-07-27T04:34:54.960Z,27.72
2022-07-27T04:35:57.130Z,27.71
2022-07-27T04:36:59.605Z,27.73
2022-07-27T04:38:03.205Z,27.74
2022-07-27T04:39:05.540Z,27.74
2022-07-27T04:40:10.661Z,27.69
2022-07-27T04:41:13.869Z,27.69
2022-07-27T04:42:16.436Z,27.74
2022-07-27T04:43:18.665Z,27.75
2022-07-27T04:44:21.163Z,27.75
2022-07-27T04:45:24.136Z,27.75
2022-07-27T04:46:29.971Z,27.76
2022-07-27T04:47:32.655Z,27.76
2022-07-27T04:48:35.288Z,27.76
2022-07-27T04:49:37.695Z,27.77
2022-07-27T04:50:44.045Z,27.77
2022-07-27T04:51:47.069Z,27.76
2022-07-27T04:52:49.585Z,27.78
2022-07-27T04:53:53.383Z,27.78
2022-07-27T04:54:56.503Z,27.78
2022-07-27T04:55:59.523Z,27.78
2022-07-27T04:57:02.003Z,27.76
2022-07-27T04:58:05.324Z,27.75
2022-07-27T04:59:08.335Z,27.75
2022-07-27T05:00:13.076Z,27.75
2022-07-27T05:01:15.399Z,27.76
2022-07-27T05:02:17.905Z,27.76
2022-07-27T05:03:20.267Z,27.78
2022-07-27T05:04:22.895Z,27.79
2022-07-27T05:05:25.913Z,27.79
2022-07-27T05:06:29.404Z,27.79
2022-07-27T05:07:31.869Z,27.80
2022-07-27T05:08:34.943Z,27.81
2022-07-27T05:09:38.478Z,27.82
2022-07-27T05:10:40.900Z,27.82
2022-07-27T05:11:50.697Z,27.84
2022-07-27T05:12:48.469Z,27.84
2022-07-27T05:13:50.894Z,27.84
2022-07-27T05:14:53.060Z,27.84
2022-07-27T05:15:56.091Z,27.84
2022-07-27T05:17:00.068Z,27.86
2022-07-27T05:18:02.978Z,27.85
2022-07-27T05:19:06.048Z,27.86
2022-07-27T05:20:10.962Z,27.85
2022-07-27T05:21:13.293Z,27.86
2022-07-27T05:22:16.197Z,27.85
2022-07-27T05:23:20.334Z,27.87
2022-07-27T05:24:22.651Z,27.87
2022-07-27T05:25:25.020Z,27.87
2022-07-27T05:26:27.506Z,27.88
2022-07-27T05:27:29.855Z,27.89
2022-07-27T05:28:32.624Z,27.89
2022-07-27T05:29:34.887Z,27.90
2022-07-27T05:30:39.396Z,27.90
2022-07-27T05:31:41.829Z,27.87
2022-07-27T05:32:45.390Z,27.86
2022-07-27T05:33:49.770Z,27.86
2022-07-27T05:34:52.137Z,27.87
2022-07-27T05:35:55.305Z,27.88
2022-07-27T05:36:58.418Z,27.88
2022-07-27T05:38:00.950Z,27.90
2022-07-27T05:39:03.456Z,27.90
2022-07-27T05:40:07.826Z,27.90
2022-07-27T05:41:10.494Z,27.91
2022-07-27T05:42:13.773Z,27.91
2022-07-27T05:43:16.168Z,27.93
2022-07-27T05:44:19.615Z,27.92
2022-07-27T05:45:22.534Z,27.93
2022-07-27T05:46:32.469Z,27.94
2022-07-27T05:47:30.902Z,27.96
2022-07-27T05:48:35.195Z,27.94
2022-07-27T05:49:37.479Z,27.94
2022-07-27T05:50:39.984Z,27.95
2022-07-27T05:51:42.415Z,27.96
2022-07-27T05:52:45.682Z,27.96
2022-07-27T05:53:48.161Z,27.95
2022-07-27T05:54:50.912Z,27.91
2022-07-27T05:55:59.434Z,27.90
2022-07-27T05:56:58.723Z,27.90
2022-07-27T05:58:01.004Z,27.90
2022-07-27T05:59:06.958Z,27.89
2022-07-27T06:00:12.426Z,27.89
2022-07-27T06:01:15.455Z,27.86
2022-07-27T06:02:19.074Z,27.83
2022-07-27T06:03:22.160Z,27.82
2022-07-27T06:04:24.881Z,27.82
2022-07-27T06:05:27.346Z,27.81
2022-07-27T06:06:30.570Z,27.81
2022-07-27T06:07:34.931Z,27.82
2022-07-27T06:08:37.404Z,27.83
2022-07-27T06:09:39.970Z,27.84
2022-07-27T06:10:43.489Z,27.85
2022-07-27T06:11:47.563Z,27.84
2022-07-27T06:12:50.274Z,27.82
2022-07-27T06:13:52.693Z,27.82
2022-07-27T06:14:55.055Z,27.83
2022-07-27T06:15:58.884Z,27.84
2022-07-27T06:17:02.265Z,27.81
2022-07-27T06:18:06.081Z,27.79
2022-07-27T06:19:08.838Z,27.79
2022-07-27T06:20:13.421Z,27.80
2022-07-27T06:21:16.389Z,27.80
2022-07-27T06:22:20.499Z,27.79
2022-07-27T06:23:22.866Z,27.81
2022-07-27T06:24:26.657Z,27.83
2022-07-27T06:25:35.722Z,27.82
2022-07-27T06:26:38.564Z,27.83
2022-07-27T06:27:40.848Z,27.80
2022-07-27T06:28:43.114Z,27.77
2022-07-27T06:29:45.533Z,27.77
2022-07-27T06:30:47.853Z,27.79
2022-07-27T06:31:50.157Z,27.80
2022-07-27T06:32:53.461Z,27.80
2022-07-27T06:33:55.922Z,27.82
2022-07-27T06:35:00.725Z,27.83
2022-07-27T06:36:04.108Z,27.82
2022-07-27T06:37:06.922Z,27.81
2022-07-27T06:38:09.857Z,27.81
2022-07-27T06:39:12.486Z,27.77
2022-07-27T06:40:16.223Z,27.74
2022-07-27T06:41:20.832Z,27.73
2022-07-27T06:42:23.137Z,27.72
2022-07-27T06:44:40.372Z,27.83
2022-07-27T06:45:42.672Z,27.76
2022-07-27T06:46:46.839Z,27.76
2022-07-27T06:47:50.213Z,27.78
2022-07-27T06:48:52.855Z,27.78
2022-07-27T06:49:55.206Z,27.80
2022-07-27T06:50:57.558Z,27.82
2022-07-27T06:52:00.025Z,27.83
2022-07-27T06:53:02.605Z,27.85
2022-07-27T06:54:05.768Z,27.85
2022-07-27T06:55:08.798Z,27.85
2022-07-27T06:56:11.713Z,27.85
2022-07-27T06:57:14.913Z,27.86
2022-07-27T06:58:18.286Z,27.86
2022-07-27T06:59:20.641Z,27.88
2022-07-27T07:00:24.787Z,27.89
2022-07-27T07:01:27.257Z,27.89
2022-07-27T07:02:29.823Z,27.90
2022-07-27T07:03:32.150Z,27.91
2022-07-27T07:04:35.566Z,27.92
2022-07-27T07:05:43.626Z,27.93
2022-07-27T07:06:46.809Z,27.93
2022-07-27T07:07:49.477Z,27.93
2022-07-27T07:08:51.944Z,27.94
2022-07-27T07:09:54.183Z,27.94
2022-07-27T07:10:56.830Z,27.93
2022-07-27T07:11:59.833Z,27.93
2022-07-27T07:13:05.796Z,27.94
2022-07-27T07:14:08.197Z,27.93
2022-07-27T07:15:10.716Z,27.92
2022-07-27T07:16:14.088Z,27.92
2022-07-27T07:17:16.607Z,27.92
2022-07-27T07:18:20.070Z,27.92
2022-07-27T07:19:23.775Z,27.93
2022-07-27T07:20:27.963Z,27.94
2022-07-27T07:21:30.983Z,27.92
2022-07-27T07:22:33.918Z,27.94
2022-07-27T07:23:36.379Z,27.94
2022-07-27T07:24:38.847Z,27.94
2022-07-27T07:25:41.310Z,27.94
2022-07-27T07:26:43.993Z,27.94
2022-07-27T07:27:46.234Z,27.94
2022-07-27T07:28:49.518Z,27.96
2022-07-27T07:29:52.699Z,27.98
2022-07-27T07:30:55.755Z,27.96
2022-07-27T07:31:58.888Z,27.94
2022-07-27T07:33:01.452Z,27.94
2022-07-27T07:34:04.605Z,27.94
2022-07-27T07:35:08.851Z,27.94
2022-07-27T07:36:14.959Z,27.94
2022-07-27T07:37:18.149Z,27.94
2022-07-27T07:38:21.437Z,27.95
2022-07-27T07:39:30.787Z,27.96
2022-07-27T07:40:45.219Z,27.96
2022-07-27T07:41:36.193Z,27.97
2022-07-27T07:44:11.969Z,28.04
2022-07-27T07:45:15.333Z,27.96
2022-07-27T07:46:20.102Z,27.94
2022-07-27T07:47:23.639Z,27.94
2022-07-27T07:48:26.218Z,27.93
2022-07-27T07:49:39.168Z,27.93
2022-07-27T07:50:32.683Z,27.92
2022-07-27T07:51:36.055Z,27.92
2022-07-27T07:52:39.476Z,27.93
2022-07-27T07:53:42.051Z,27.93
2022-07-27T07:54:45.082Z,27.93
2022-07-27T07:55:47.701Z,27.95
2022-07-27T07:56:50.605Z,27.95
2022-07-27T07:57:53.227Z,27.97
2022-07-27T07:58:57.235Z,27.98
2022-07-27T08:00:00.071Z,27.98
2022-07-27T08:01:03.312Z,27.98
2022-07-27T08:02:06.810Z,27.99
2022-07-27T08:03:09.189Z,27.99
2022-07-27T08:04:11.457Z,27.99
2022-07-27T08:05:14.024Z,27.99
2022-07-27T08:06:18.752Z,27.99
2022-07-27T08:07:21.503Z,28.00
2022-07-27T08:08:24.788Z,28.00
2022-07-27T08:09:29.679Z,28.00
2022-07-27T08:10:32.965Z,28.00
2022-07-27T08:11:35.267Z,28.01
2022-07-27T08:12:39.827Z,28.01
2022-07-27T08:13:43.174Z,28.02
2022-07-27T08:14:45.631Z,28.03
2022-07-27T08:15:47.953Z,28.02
2022-07-27T08:16:50.971Z,27.98
2022-07-27T08:17:53.515Z,27.98
2022-07-27T08:18:55.768Z,28.03
2022-07-27T08:20:00.003Z,28.04
2022-07-27T08:21:03.526Z,28.04
2022-07-27T08:22:06.368Z,28.04
2022-07-27T08:23:08.734Z,28.05
2022-07-27T08:24:12.011Z,28.04
2022-07-27T08:25:15.344Z,28.05
2022-07-27T08:26:18.860Z,28.06
2022-07-27T08:27:21.352Z,28.06
2022-07-27T08:28:23.643Z,28.05
2022-07-27T08:29:36.558Z,28.05
2022-07-27T08:30:32.333Z,28.06
2022-07-27T08:31:52.319Z,28.06
2022-07-27T08:34:01.810Z,28.16
2022-07-27T08:35:04.971Z,28.05
2022-07-27T08:36:07.997Z,28.05
2022-07-27T08:37:15.227Z,28.05
2022-07-27T08:38:15.172Z,28.06
2022-07-27T08:39:52.338Z,28.05
2022-07-27T08:40:41.701Z,28.05
2022-07-27T08:41:28.102Z,28.05
2022-07-27T08:42:31.560Z,28.07
2022-07-27T08:43:34.771Z,28.06
2022-07-27T08:45:55.851Z,28.17
2022-07-27T08:46:59.908Z,28.08
2022-07-27T08:48:02.656Z,28.07
2022-07-27T08:49:06.593Z,28.07
2022-07-27T08:50:12.527Z,28.07
2022-07-27T08:51:14.731Z,28.07
2022-07-27T08:52:17.002Z,28.07
2022-07-27T08:53:19.893Z,28.07
2022-07-27T08:54:22.937Z,28.07
2022-07-27T08:55:25.331Z,28.08
2022-07-27T08:56:27.897Z,28.08
2022-07-27T08:57:30.765Z,28.08
2022-07-27T08:58:33.160Z,28.08
2022-07-27T08:59:35.703Z,28.07
2022-07-27T09:00:41.140Z,28.08
2022-07-27T09:01:45.594Z,28.08
2022-07-27T09:02:48.242Z,28.08
2022-07-27T09:03:51.349Z,28.07
2022-07-27T09:04:54.587Z,28.07
2022-07-27T09:05:57.792Z,28.08
2022-07-27T09:07:00.382Z,28.08
2022-07-27T09:08:09.752Z,28.09
2022-07-27T09:09:13.629Z,28.09
2022-07-27T09:10:32.190Z,28.09
2022-07-27T09:11:34.995Z,28.10
2022-07-27T09:12:38.680Z,28.09
2022-07-27T09:13:41.286Z,28.07
2022-07-27T09:14:44.196Z,28.06
2022-07-27T09:16:16.400Z,28.04
2022-07-27T09:17:45.764Z,28.05
2022-07-27T09:17:59.616Z,28.04
2022-07-27T09:20:19.282Z,28.15
2022-07-27T09:21:23.788Z,28.05
2022-07-27T09:22:53.180Z,28.05
2022-07-27T09:25:38.760Z,28.18
2022-07-27T09:26:33.793Z,28.09
2022-07-27T09:27:33.108Z,28.07
2022-07-27T09:28:35.614Z,28.08
2022-07-27T09:29:38.502Z,28.09
2022-07-27T09:30:43.803Z,28.09
2022-07-27T09:31:49.943Z,28.09
2022-07-27T09:32:57.947Z,28.10
2022-07-27T09:34:01.707Z,28.11
2022-07-27T09:35:18.234Z,28.10
2022-07-27T09:36:24.401Z,28.12
2022-07-27T09:37:27.248Z,28.12
2022-07-27T09:38:30.320Z,28.12
2022-07-27T09:39:32.875Z,28.12
2022-07-27T09:40:35.508Z,28.11
2022-07-27T09:41:42.223Z,28.12
2022-07-27T09:43:09.116Z,28.13
2022-07-27T09:44:59.673Z,28.13
2022-07-27T09:46:05.711Z,28.13
2022-07-27T09:48:39.333Z,28.24
2022-07-27T09:49:42.353Z,28.13
2022-07-27T09:51:01.928Z,28.12
2022-07-27T09:53:41.345Z,28.21
2022-07-27T09:54:18.660Z,28.11
2022-07-27T09:55:21.456Z,28.11
2022-07-27T09:56:30.274Z,28.10
2022-07-27T09:57:53.413Z,28.10
2022-07-27T10:00:11.116Z,28.19
2022-07-27T10:01:22.548Z,28.09
2022-07-27T10:02:25.861Z,28.08
2022-07-27T10:03:29.583Z,28.07
2022-07-27T10:04:32.700Z,28.07
2022-07-27T10:05:35.864Z,28.07
2022-07-27T10:07:00.285Z,28.07
2022-07-27T10:07:44.153Z,28.06
2022-07-27T10:08:48.381Z,28.07
2022-07-27T10:09:51.640Z,28.07
2022-07-27T10:10:54.559Z,28.08
2022-07-27T10:11:57.390Z,28.09
2022-07-27T10:12:59.754Z,28.09
2022-07-27T10:14:03.243Z,28.10
2022-07-27T10:15:08.005Z,28.12
2022-07-27T10:17:25.466Z,28.25
2022-07-27T10:18:55.845Z,28.16
2022-07-27T10:19:59.960Z,28.15
2022-07-27T10:21:06.973Z,28.16
2022-07-27T10:22:10.652Z,28.17
2022-07-27T10:23:27.864Z,28.18
2022-07-27T10:24:31.572Z,28.17
2022-07-27T10:25:37.869Z,28.17
2022-07-27T10:26:41.143Z,28.17
2022-07-27T10:27:46.040Z,28.16
2022-07-27T10:28:51.147Z,28.15
2022-07-27T10:29:54.537Z,28.13
2022-07-27T10:31:14.737Z,28.12
2022-07-27T10:33:47.194Z,28.19
2022-07-27T10:34:49.959Z,28.09
2022-07-27T10:35:52.323Z,28.08
2022-07-27T10:36:55.408Z,28.07
2022-07-27T10:38:09.520Z,28.06
2022-07-27T10:39:13.318Z,28.06
2022-07-27T10:40:19.123Z,28.06
2022-07-27T10:41:40.697Z,28.06
2022-07-27T10:42:44.200Z,28.05
2022-07-27T10:43:46.447Z,28.06
2022-07-27T10:44:58.739Z,28.06
2022-07-27T10:46:03.056Z,28.07
2022-07-27T10:47:05.603Z,28.07
2022-07-27T10:48:08.111Z,28.08
2022-07-27T10:50:30.201Z,28.22
2022-07-27T10:51:36.002Z,28.13
2022-07-27T10:52:43.225Z,28.14
2022-07-27T10:54:53.635Z,28.16
2022-07-27T10:55:55.118Z,28.17
2022-07-27T10:56:58.711Z,28.18
2022-07-27T10:58:04.865Z,28.19
2022-07-27T10:59:07.369Z,28.19
2022-07-27T11:00:16.330Z,28.20
2022-07-27T11:01:15.862Z,28.20
2022-07-27T11:02:19.735Z,28.21
2022-07-27T11:03:23.963Z,28.21
2022-07-27T11:04:27.782Z,28.22
2022-07-27T11:05:59.078Z,28.22
2022-07-27T11:07:04.709Z,28.21
2022-07-27T11:07:46.374Z,28.21
2022-07-27T11:09:08.520Z,28.21
2022-07-27T11:10:09.186Z,28.22
2022-07-27T11:11:00.279Z,28.22
2022-07-27T11:12:07.154Z,28.24
2022-07-27T11:13:10.807Z,28.23
2022-07-27T11:14:13.803Z,28.25
2022-07-27T11:15:18.711Z,28.26
2022-07-27T11:16:25.869Z,28.26
2022-07-27T11:19:56.753Z,28.40
2022-07-27T11:21:26.188Z,28.30
2022-07-27T11:23:51.647Z,28.31
2022-07-27T11:24:51.612Z,28.30
2022-07-27T11:25:59.240Z,28.30
2022-07-27T11:27:02.194Z,28.30
2022-07-27T11:28:07.354Z,28.30
2022-07-27T11:29:12.207Z,28.25
2022-07-27T11:30:27.771Z,28.25
2022-07-27T11:31:54.218Z,28.29
2022-07-27T11:32:36.846Z,28.29
2022-07-27T11:33:58.044Z,28.30
2022-07-27T11:35:03.821Z,28.29
2022-07-27T11:36:07.294Z,28.29
2022-07-27T11:37:14.701Z,28.28
2022-07-27T11:38:17.118Z,28.27
2022-07-27T11:39:54.235Z,28.27
2022-07-27T11:41:55.875Z,28.26
2022-07-27T11:42:39.410Z,28.26
2022-07-27T11:43:45.561Z,28.26
2022-07-27T11:44:47.816Z,28.25
2022-07-27T11:45:51.534Z,28.23
2022-07-27T11:46:57.395Z,28.23
2022-07-27T11:47:59.581Z,28.24
2022-07-27T11:49:07.063Z,28.24
2022-07-27T11:50:09.871Z,28.24
2022-07-27T11:51:15.560Z,28.24
2022-07-27T11:52:18.070Z,28.23
2022-07-27T11:53:20.392Z,28.23
2022-07-27T11:54:31.255Z,28.22
2022-07-27T11:55:33.790Z,28.23
2022-07-27T11:56:40.097Z,28.21
2022-07-27T11:57:42.639Z,28.21
2022-07-27T12:00:13.756Z,28.33
2022-07-27T12:01:34.165Z,28.23
2022-07-27T12:02:37.066Z,28.23
2022-07-27T12:03:46.998Z,28.24
2022-07-27T12:04:45.732Z,28.24
2022-07-27T12:05:53.985Z,28.24
2022-07-27T12:07:21.534Z,28.26
2022-07-27T12:08:24.704Z,28.26
2022-07-27T12:09:27.458Z,28.26
2022-07-27T12:10:35.895Z,28.26
2022-07-27T12:11:55.940Z,28.27
2022-07-27T12:12:59.594Z,28.27
2022-07-27T12:14:05.591Z,28.26
2022-07-27T12:15:44.276Z,28.27
2022-07-27T12:16:21.471Z,28.26
2022-07-27T12:17:36.955Z,28.26
2022-07-27T12:18:43.853Z,28.26
2022-07-27T12:19:51.524Z,28.27
2022-07-27T12:20:54.292Z,28.28
2022-07-27T12:21:56.465Z,28.28
2022-07-27T12:23:05.908Z,28.27
2022-07-27T12:24:09.784Z,28.27
2022-07-27T12:25:24.909Z,28.28
2022-07-27T12:26:30.112Z,28.27
2022-07-27T12:27:33.135Z,28.27
2022-07-27T12:28:35.647Z,28.26
2022-07-27T12:30:00.877Z,28.27
2022-07-27T12:31:03.301Z,28.27
2022-07-27T12:32:05.897Z,28.26
2022-07-27T12:33:28.348Z,28.25
2022-07-27T12:34:35.976Z,28.27
2022-07-27T12:35:46.276Z,28.25
2022-07-27T12:36:50.089Z,28.24
2022-07-27T12:39:26.348Z,28.36
2022-07-27T12:40:30.654Z,28.24
2022-07-27T12:41:33.417Z,28.23
2022-07-27T12:42:35.996Z,28.24
2022-07-27T12:43:39.231Z,28.24
2022-07-27T12:44:44.171Z,28.24
2022-07-27T12:45:48.458Z,28.24
2022-07-27T12:50:46.619Z,28.25
2022-07-27T12:51:49.052Z,28.24
2022-07-27T12:52:52.234Z,28.25
2022-07-27T12:53:54.903Z,28.17
2022-07-27T12:54:58.350Z,28.23
2022-07-27T12:57:46.379Z,28.33
2022-07-27T12:58:22.850Z,28.22
2022-07-27T12:59:26.067Z,28.21
2022-07-27T13:00:33.705Z,28.20
2022-07-27T13:01:35.344Z,28.20
2022-07-27T13:02:38.652Z,28.22
2022-07-27T13:03:40.955Z,28.23
2022-07-27T13:04:43.305Z,28.23
2022-07-27T13:05:45.770Z,28.23
2022-07-27T13:06:49.662Z,28.24
2022-07-27T13:07:52.332Z,28.24
2022-07-27T13:08:55.928Z,28.25
2022-07-27T13:10:01.828Z,28.24
2022-07-27T13:11:03.925Z,28.25
2022-07-27T13:12:07.842Z,28.24
2022-07-27T13:13:10.610Z,28.24
2022-07-27T13:14:13.007Z,28.25
2022-07-27T13:15:15.500Z,28.25
2022-07-27T13:16:19.708Z,28.25
2022-07-27T13:17:22.113Z,28.24
2022-07-27T13:18:25.302Z,28.25
2022-07-27T13:19:27.745Z,28.25
2022-07-27T13:20:31.332Z,28.24
2022-07-27T13:21:34.623Z,28.24
2022-07-27T13:22:38.362Z,28.24
2022-07-27T13:23:41.623Z,28.25
2022-07-27T13:24:45.007Z,28.23
2022-07-27T13:25:49.803Z,28.23
2022-07-27T13:26:52.363Z,28.23
2022-07-27T13:27:54.735Z,28.22
2022-07-27T13:28:56.991Z,28.21
2022-07-27T13:29:59.971Z,28.21
2022-07-27T13:31:03.022Z,28.20
2022-07-27T13:32:06.292Z,28.21
2022-07-27T13:33:08.890Z,28.21
2022-07-27T13:34:11.362Z,28.20
2022-07-27T13:35:13.834Z,28.20
2022-07-27T13:36:16.905Z,28.20
2022-07-27T13:37:19.878Z,28.20
2022-07-27T13:38:23.263Z,28.21
2022-07-27T13:39:25.707Z,28.21
2022-07-27T13:40:31.882Z,28.20
2022-07-27T13:41:36.684Z,28.22
2022-07-27T13:42:40.317Z,28.22
2022-07-27T13:43:43.612Z,28.22
2022-07-27T13:45:51.638Z,28.23
2022-07-27T13:46:54.439Z,28.23
2022-07-27T13:47:56.774Z,28.23
2022-07-27T13:49:00.467Z,28.22
2022-07-27T13:50:05.056Z,28.22
2022-07-27T13:51:07.547Z,28.20
2022-07-27T13:52:10.861Z,28.22
2022-07-27T13:53:15.584Z,28.22
2022-07-27T13:54:17.644Z,28.21
2022-07-27T13:55:23.525Z,28.23
2022-07-27T13:56:24.641Z,28.23
2022-07-27T13:57:26.971Z,28.23
2022-07-27T13:58:29.542Z,28.22
2022-07-27T13:59:32.079Z,28.21
2022-07-27T14:00:35.631Z,28.19
2022-07-27T14:01:40.465Z,28.20
2022-07-27T14:02:45.445Z,28.20
2022-07-27T14:03:49.131Z,28.21
2022-07-27T14:04:52.315Z,28.22
2022-07-27T14:05:55.101Z,28.22
2022-07-27T14:06:57.832Z,28.23
2022-07-27T14:08:00.429Z,28.22
2022-07-27T14:09:04.933Z,28.23
2022-07-27T14:10:09.340Z,28.23
2022-07-27T14:11:12.723Z,28.23
2022-07-27T14:12:14.997Z,28.23
2022-07-27T14:13:21.781Z,28.23
2022-07-27T14:14:26.838Z,28.23
2022-07-27T14:15:29.451Z,28.23
2022-07-27T14:16:32.278Z,28.23